createdAt,value
2023-05-25T00:02:05.301Z,100058.09
2023-05-25T00:04:34.671Z,100058.50
2023-05-25T00:07:02.051Z,100061.63
2023-05-25T00:09:29.362Z,100059.44
2023-05-25T00:11:58.276Z,100057.16
2023-05-25T00:14:25.565Z,100056.75
2023-05-25T00:16:53.424Z,100067.19
2023-05-25T00:19:21.101Z,100067.28
2023-05-25T00:21:48.734Z,100047.50
2023-05-25T00:24:16.071Z,100054.53
2023-05-25T00:26:43.947Z,100056.91
2023-05-25T00:29:12.648Z,100050.13
2023-05-25T00:31:40.111Z,100052.78
2023-05-25T00:34:08.460Z,100046.22
2023-05-25T00:36:35.679Z,100058.94
2023-05-25T00:39:03.967Z,100057.84
2023-05-25T00:41:31.635Z,100066.03
2023-05-25T00:43:59.011Z,100069.97
2023-05-25T00:46:26.271Z,100068.25
2023-05-25T00:48:54.894Z,100064.72
2023-05-25T00:51:22.852Z,100075.97
2023-05-25T00:53:50.220Z,100079.66
2023-05-25T00:56:24.508Z,100076.06
2023-05-25T00:58:53.094Z,100072.22
2023-05-25T01:01:21.178Z,100077.47
2023-05-25T01:03:54.024Z,100079.69
2023-05-25T01:06:22.988Z,100074.19
2023-05-25T01:08:51.911Z,100076.09
2023-05-25T01:11:20.144Z,100080.19
2023-05-25T01:13:48.367Z,100078.31
2023-05-25T01:16:16.698Z,100084.22
2023-05-25T01:18:44.045Z,100083.09
2023-05-25T01:21:18.213Z,100090.97
2023-05-25T01:24:04.190Z,100094.09
2023-05-25T01:26:32.538Z,100090.78
2023-05-25T01:28:59.767Z,100081.28
2023-05-25T01:31:27.049Z,100085.09
2023-05-25T01:33:54.701Z,100083.69
2023-05-25T01:36:22.081Z,100092.59
2023-05-25T01:38:49.867Z,100092.22
2023-05-25T01:41:17.581Z,100090.44
2023-05-25T01:43:45.170Z,100093.03
2023-05-25T01:46:16.086Z,100092.47
2023-05-25T01:48:44.074Z,100095.22
2023-05-25T01:51:14.759Z,100095.53
2023-05-25T01:53:53.722Z,100097.69
2023-05-25T01:56:21.825Z,100096.62
2023-05-25T01:58:49.151Z,100099.03
2023-05-25T02:01:16.406Z,100101.31
2023-05-25T02:03:45.184Z,100110.31
2023-05-25T02:06:12.911Z,100115.13
2023-05-25T02:08:40.114Z,100108.63
2023-05-25T02:11:07.870Z,100107.16
2023-05-25T02:13:35.264Z,100100.66
2023-05-25T02:16:03.417Z,100097.53
2023-05-25T02:18:31.458Z,100100.22
2023-05-25T02:20:59.020Z,100102.03
2023-05-25T02:23:26.400Z,100107.75
2023-05-25T02:25:54.032Z,100103.22
2023-05-25T02:28:23.638Z,100101.63
2023-05-25T02:30:51.200Z,100105.41
2023-05-25T02:33:18.990Z,100107.22
2023-05-25T02:35:47.078Z,100117.25
2023-05-25T02:38:14.427Z,100111.06
2023-05-25T02:40:41.898Z,100113.06
2023-05-25T02:43:09.971Z,100106.00
2023-05-25T02:45:37.335Z,100106.16
2023-05-25T02:48:04.631Z,100115.44
2023-05-25T02:50:32.601Z,100115.22
2023-05-25T02:53:00.644Z,100119.00
2023-05-25T02:55:28.241Z,100111.69
2023-05-25T02:57:56.384Z,100116.34
2023-05-25T03:00:25.904Z,100123.44
2023-05-25T03:02:53.629Z,100125.78
2023-05-25T03:05:22.249Z,100128.75
2023-05-25T03:07:49.543Z,100125.97
2023-05-25T03:10:16.745Z,100123.94
2023-05-25T03:12:44.770Z,100124.28
2023-05-25T03:15:14.016Z,100127.69
2023-05-25T03:17:41.661Z,100131.28
2023-05-25T03:20:10.640Z,100135.50
2023-05-25T03:22:39.546Z,100138.00
2023-05-25T03:25:07.151Z,100134.53
2023-05-25T03:27:34.842Z,100138.63
2023-05-25T03:30:02.237Z,100137.09
2023-05-25T03:32:30.684Z,100129.41
2023-05-25T03:34:58.194Z,100121.44
2023-05-25T03:37:25.711Z,100134.47
2023-05-25T03:39:52.848Z,100134.94
2023-05-25T03:42:20.683Z,100142.16
2023-05-25T03:44:48.627Z,100143.78
2023-05-25T03:47:16.262Z,100133.97
2023-05-25T03:49:43.742Z,100138.97
2023-05-25T03:52:11.073Z,100139.78
2023-05-25T03:54:38.227Z,100146.09
2023-05-25T03:57:06.274Z,100147.09
2023-05-25T03:59:33.458Z,100151.34
2023-05-25T04:02:00.836Z,100153.22
2023-05-25T04:04:29.955Z,100152.78
2023-05-25T04:06:57.177Z,100156.69
2023-05-25T04:09:24.419Z,100155.22
2023-05-25T04:11:52.155Z,100159.81
2023-05-25T04:14:21.655Z,100157.47
2023-05-25T04:16:49.356Z,100164.00
2023-05-25T04:19:17.199Z,100160.69
2023-05-25T04:21:44.611Z,100166.63
2023-05-25T04:24:11.988Z,100168.78
2023-05-25T04:26:40.377Z,100167.62
2023-05-25T04:29:09.923Z,100173.06
2023-05-25T04:31:40.374Z,100181.59
2023-05-25T04:34:09.726Z,100177.25
2023-05-25T04:36:43.208Z,100173.03
2023-05-25T04:39:13.038Z,100185.78
2023-05-25T04:41:40.783Z,100178.50
2023-05-25T04:44:10.132Z,100171.16
2023-05-25T04:46:39.156Z,100173.13
2023-05-25T04:49:08.630Z,100170.97
2023-05-25T04:51:37.234Z,100174.16
2023-05-25T04:54:05.095Z,100176.78
2023-05-25T04:56:33.051Z,100172.75
2023-05-25T04:59:00.619Z,100171.03
2023-05-25T05:01:29.326Z,100175.81
2023-05-25T05:03:56.926Z,100180.72
2023-05-25T05:06:25.837Z,100181.53
2023-05-25T05:08:53.560Z,100180.75
2023-05-25T05:11:21.729Z,100185.06
2023-05-25T05:13:49.330Z,100184.50
2023-05-25T05:16:17.396Z,100173.78
2023-05-25T05:18:44.881Z,100184.50
2023-05-25T05:21:12.251Z,100194.75
2023-05-25T05:23:39.992Z,100194.16
2023-05-25T05:26:11.075Z,100188.12
2023-05-25T05:28:38.502Z,100189.63
2023-05-25T05:31:06.868Z,100191.06
2023-05-25T05:33:34.874Z,100192.06
2023-05-25T05:36:03.806Z,100186.41
2023-05-25T05:38:31.832Z,100189.00
2023-05-25T05:40:59.121Z,100192.84
2023-05-25T05:43:26.520Z,100186.69
2023-05-25T05:45:54.064Z,100193.03
2023-05-25T05:48:21.300Z,100201.75
2023-05-25T05:50:52.517Z,100198.44
2023-05-25T05:53:20.994Z,100195.53
2023-05-25T05:55:51.254Z,100196.72
2023-05-25T05:58:20.573Z,100204.56
2023-05-25T06:00:47.974Z,100202.25
2023-05-25T06:03:15.706Z,100193.94
2023-05-25T06:05:43.408Z,100200.13
2023-05-25T06:08:11.932Z,100203.56
2023-05-25T06:10:39.763Z,100215.03
2023-05-25T06:13:10.137Z,100211.28
2023-05-25T06:15:37.482Z,100222.78
2023-05-25T06:18:06.307Z,100214.56
2023-05-25T06:20:35.341Z,100222.44
2023-05-25T06:23:03.091Z,100223.41
2023-05-25T06:25:31.074Z,100217.41
2023-05-25T06:27:58.749Z,100221.72
2023-05-25T06:30:27.076Z,100217.78
2023-05-25T06:32:55.013Z,100217.03
2023-05-25T06:35:23.451Z,100221.75
2023-05-25T06:37:50.948Z,100219.00
2023-05-25T06:40:21.165Z,100218.62
2023-05-25T06:42:48.484Z,100218.38
2023-05-25T06:45:24.190Z,100222.41
2023-05-25T06:47:51.547Z,100218.62
2023-05-25T06:50:19.126Z,100226.47
2023-05-25T06:52:46.927Z,100223.97
2023-05-25T06:55:14.143Z,100227.47
2023-05-25T06:57:41.400Z,100224.25
2023-05-25T07:00:12.185Z,100235.06
2023-05-25T07:02:39.609Z,100228.31
2023-05-25T07:05:07.907Z,100232.28
2023-05-25T07:07:35.607Z,100224.41
2023-05-25T07:10:03.595Z,100236.66
2023-05-25T07:12:31.567Z,100236.25
2023-05-25T07:14:59.164Z,100235.88
2023-05-25T07:17:26.694Z,100222.88
2023-05-25T07:19:54.475Z,100238.09
2023-05-25T07:22:23.710Z,100240.16
2023-05-25T07:24:51.204Z,100233.50
2023-05-25T07:27:19.721Z,100233.53
2023-05-25T07:29:47.603Z,100228.34
2023-05-25T07:32:15.050Z,100223.41
2023-05-25T07:34:42.586Z,100221.31
2023-05-25T07:37:10.143Z,100225.78
2023-05-25T07:39:37.479Z,100232.44
2023-05-25T07:42:04.891Z,100232.81
2023-05-25T07:44:32.452Z,100228.28
2023-05-25T07:46:59.897Z,100230.66
2023-05-25T07:49:27.294Z,100232.81
2023-05-25T07:51:54.795Z,100228.09
2023-05-25T07:54:22.157Z,100236.44
2023-05-25T07:56:49.460Z,100224.78
2023-05-25T07:59:17.085Z,100235.53
2023-05-25T08:01:44.566Z,100237.03
2023-05-25T08:04:12.729Z,100224.50
2023-05-25T08:06:40.141Z,100231.50
2023-05-25T08:09:09.184Z,100231.62
2023-05-25T08:11:37.259Z,100228.38
2023-05-25T08:14:04.489Z,100241.00
2023-05-25T08:16:31.814Z,100221.53
2023-05-25T08:19:01.976Z,100228.78
2023-05-25T08:21:29.350Z,100237.75
2023-05-25T08:23:56.795Z,100238.59
2023-05-25T08:26:41.426Z,100243.28
2023-05-25T08:29:11.680Z,100238.88
2023-05-25T08:31:39.323Z,100241.53
2023-05-25T08:34:06.826Z,100245.56
2023-05-25T08:36:35.975Z,100241.19
2023-05-25T08:39:04.684Z,100239.25
2023-05-25T08:41:32.366Z,100240.97
2023-05-25T08:44:06.157Z,100241.25
2023-05-25T08:46:33.769Z,100240.41
2023-05-25T08:49:13.981Z,100237.09
2023-05-25T08:51:48.029Z,100241.25
2023-05-25T08:54:17.352Z,100245.62
2023-05-25T08:56:48.428Z,100238.59
2023-05-25T08:59:18.242Z,100236.06
2023-05-25T09:01:46.759Z,100233.75
2023-05-25T09:04:14.695Z,100241.44
2023-05-25T09:06:42.487Z,100234.03
2023-05-25T09:09:10.717Z,100233.72
2023-05-25T09:11:41.622Z,100226.53
2023-05-25T09:14:10.986Z,100231.56
2023-05-25T09:16:38.583Z,100229.22
2023-05-25T09:19:06.107Z,100230.94
2023-05-25T09:21:33.928Z,100227.72
2023-05-25T09:24:01.710Z,100222.66
2023-05-25T09:26:28.959Z,100230.69
2023-05-25T09:28:56.400Z,100235.75
2023-05-25T09:31:24.747Z,100239.22
2023-05-25T09:33:55.645Z,100233.22
2023-05-25T09:36:23.446Z,100230.56
2023-05-25T09:38:53.143Z,100230.81
2023-05-25T09:41:20.965Z,100232.44
2023-05-25T09:46:22.584Z,100235.00
2023-05-25T09:48:51.517Z,100244.13
2023-05-25T09:51:19.089Z,100235.97
2023-05-25T09:53:46.794Z,100231.25
2023-05-25T09:56:14.194Z,100227.91
2023-05-25T09:58:42.003Z,100234.66
2023-05-25T10:01:09.706Z,100234.78
2023-05-25T10:03:46.060Z,100239.63
2023-05-25T10:06:19.436Z,100229.97
2023-05-25T10:08:47.856Z,100237.94
2023-05-25T10:11:15.804Z,100235.84
2023-05-25T10:13:44.890Z,100233.84
2023-05-25T10:16:19.442Z,100226.91
2023-05-25T10:18:55.984Z,100235.62
2023-05-25T10:21:23.723Z,100235.00
2023-05-25T10:23:51.697Z,100233.03
2023-05-25T10:26:20.119Z,100225.88
2023-05-25T10:28:50.822Z,100220.94
2023-05-25T10:31:18.303Z,100224.81
2023-05-25T10:33:49.192Z,100217.63
2023-05-25T10:36:20.093Z,100210.81
2023-05-25T10:38:47.357Z,100212.56
2023-05-25T10:41:15.988Z,100205.59
2023-05-25T10:43:43.713Z,100214.38
2023-05-25T10:46:12.711Z,100208.09
2023-05-25T10:48:40.602Z,100210.00
2023-05-25T10:51:10.243Z,100214.09
2023-05-25T10:53:39.450Z,100211.94
2023-05-25T10:56:08.733Z,100205.63
2023-05-25T10:58:36.579Z,100202.94
2023-05-25T11:01:07.442Z,100206.59
2023-05-25T11:03:44.054Z,100204.66
2023-05-25T11:06:12.426Z,100204.50
2023-05-25T11:08:48.589Z,100204.38
2023-05-25T11:11:16.160Z,100195.69
2023-05-25T11:13:46.958Z,100196.13
2023-05-25T11:16:20.774Z,100193.34
2023-05-25T11:18:58.651Z,100197.97
2023-05-25T11:21:30.377Z,100194.19
2023-05-25T11:24:06.817Z,100186.53
2023-05-25T11:26:34.436Z,100184.62
2023-05-25T11:29:03.165Z,100182.34
2023-05-25T11:31:37.834Z,100181.84
2023-05-25T11:34:07.449Z,100184.84
2023-05-25T11:36:35.713Z,100169.13
2023-05-25T11:39:17.209Z,100172.09
2023-05-25T11:41:51.458Z,100173.66
2023-05-25T11:44:26.253Z,100168.44
2023-05-25T11:46:57.319Z,100172.75
2023-05-25T11:49:25.924Z,100169.16
2023-05-25T11:51:54.256Z,100162.91
2023-05-25T11:54:25.400Z,100151.31
2023-05-25T11:56:52.932Z,100142.84
2023-05-25T11:59:20.553Z,100153.31
2023-05-25T12:01:57.623Z,100149.03
2023-05-25T12:04:25.390Z,100143.78
2023-05-25T12:06:52.800Z,100147.22
2023-05-25T12:09:23.503Z,100141.41
2023-05-25T12:11:51.130Z,100139.72
2023-05-25T12:14:18.463Z,100136.28
2023-05-25T12:16:45.937Z,100137.81
2023-05-25T12:19:13.680Z,100139.09
2023-05-25T12:21:41.030Z,100136.88
2023-05-25T12:24:09.909Z,100133.66
2023-05-25T12:26:46.877Z,100136.16
2023-05-25T12:29:14.137Z,100131.69
2023-05-25T12:31:41.797Z,100134.78
2023-05-25T12:34:10.109Z,100137.22
2023-05-25T12:36:45.355Z,100132.50
2023-05-25T12:39:13.402Z,100128.16
2023-05-25T12:41:54.754Z,100128.87
2023-05-25T12:44:23.940Z,100122.53
2023-05-25T12:46:52.147Z,100129.38
2023-05-25T12:49:32.481Z,100125.75
2023-05-25T12:52:00.991Z,100122.06
2023-05-25T12:54:42.245Z,100125.63
2023-05-25T12:57:10.554Z,100115.59
2023-05-25T12:59:38.142Z,100117.84
2023-05-25T13:02:05.860Z,100117.69
2023-05-25T13:04:34.046Z,100116.62
2023-05-25T13:07:01.602Z,100107.91
2023-05-25T13:09:28.929Z,100113.69
2023-05-25T13:11:56.979Z,100108.22
2023-05-25T13:14:24.723Z,100101.69
2023-05-25T13:16:52.382Z,100104.56
2023-05-25T13:19:20.504Z,100107.75
2023-05-25T13:21:49.364Z,100101.78
2023-05-25T13:24:16.754Z,100101.34
2023-05-25T13:26:45.707Z,100099.69
2023-05-25T13:29:14.310Z,100097.38
2023-05-25T13:31:42.328Z,100092.31
2023-05-25T13:34:09.855Z,100085.06
2023-05-25T13:36:37.072Z,100086.88
2023-05-25T13:39:05.416Z,100080.25
2023-05-25T13:41:33.126Z,100080.16
2023-05-25T13:44:00.462Z,100085.75
2023-05-25T13:46:34.669Z,100071.28
2023-05-25T13:49:02.898Z,100068.00
2023-05-25T13:51:30.178Z,100060.47
2023-05-25T13:53:57.387Z,100057.87
2023-05-25T13:56:24.929Z,100054.44
2023-05-25T13:58:52.247Z,100065.13
2023-05-25T14:01:19.569Z,100042.53
2023-05-25T14:03:47.446Z,100046.53
2023-05-25T14:06:14.888Z,100056.72
2023-05-25T14:08:42.158Z,100045.47
2023-05-25T14:11:09.796Z,100043.09
2023-05-25T14:13:37.146Z,100046.94
2023-05-25T14:16:04.447Z,100032.84
2023-05-25T14:18:32.172Z,100038.56
2023-05-25T14:20:59.642Z,100040.97
2023-05-25T14:23:26.921Z,100036.16
2023-05-25T14:25:54.479Z,100037.84
2023-05-25T14:28:21.748Z,100037.31
2023-05-25T14:30:48.967Z,100036.84
2023-05-25T14:33:17.356Z,100046.31
2023-05-25T14:35:44.919Z,100034.28
2023-05-25T14:38:12.497Z,100025.75
2023-05-25T14:40:40.034Z,100031.56
2023-05-25T14:43:07.355Z,100024.09
2023-05-25T14:45:34.576Z,100026.56
2023-05-25T14:48:15.306Z,100023.84
2023-05-25T14:50:44.405Z,100023.41
2023-05-25T14:53:12.160Z,100022.97
2023-05-25T14:55:40.985Z,100026.91
2023-05-25T14:58:08.335Z,100018.38
2023-05-25T15:00:35.812Z,100015.06
2023-05-25T15:03:03.135Z,100026.75
2023-05-25T15:05:30.463Z,100028.34
2023-05-25T15:07:59.043Z,100023.03
2023-05-25T15:10:26.350Z,100025.03
2023-05-25T15:12:53.628Z,100014.69
2023-05-25T15:15:21.115Z,100016.75
2023-05-25T15:17:48.344Z,100017.72
2023-05-25T15:20:15.983Z,100025.88
2023-05-25T15:22:43.507Z,100019.16
2023-05-25T15:25:10.825Z,100019.09
2023-05-25T15:27:38.112Z,100026.75
2023-05-25T15:30:07.342Z,100019.16
2023-05-25T15:32:34.758Z,100026.75
2023-05-25T15:35:02.003Z,100017.38
2023-05-25T15:37:29.885Z,100021.72
2023-05-25T15:39:57.239Z,100018.72
2023-05-25T15:42:24.572Z,100011.09
2023-05-25T15:44:52.104Z,100017.91
2023-05-25T15:47:19.428Z,100020.91
2023-05-25T15:49:46.727Z,100015.66
2023-05-25T15:52:14.393Z,100021.47
2023-05-25T15:54:41.665Z,100014.72
2023-05-25T15:57:08.909Z,100015.44
2023-05-25T15:59:36.566Z,100011.75
2023-05-25T16:02:03.861Z,100016.50
2023-05-25T16:04:31.407Z,100014.53
2023-05-25T16:06:59.527Z,100021.91
2023-05-25T16:09:28.494Z,100016.47
2023-05-25T16:11:56.004Z,100017.09
2023-05-25T16:14:23.350Z,100021.69
2023-05-25T16:16:51.574Z,100017.25
2023-05-25T16:19:19.215Z,100022.72
2023-05-25T16:21:46.789Z,100023.37
2023-05-25T16:24:14.091Z,100017.56
2023-05-25T16:26:41.599Z,100018.09
2023-05-25T16:29:08.892Z,100023.87
2023-05-25T16:31:36.247Z,100012.97
2023-05-25T16:34:04.388Z,100022.56
2023-05-25T16:36:31.650Z,100023.31
2023-05-25T16:38:58.916Z,100026.00
2023-05-25T16:41:27.490Z,100018.88
2023-05-25T16:43:54.793Z,100021.91
2023-05-25T16:46:22.163Z,100026.47
2023-05-25T16:48:49.668Z,100026.19
2023-05-25T16:51:17.047Z,100029.88
2023-05-25T16:53:45.432Z,100019.25
2023-05-25T16:56:13.067Z,100030.81
2023-05-25T16:58:40.410Z,100029.94
2023-05-25T17:01:07.763Z,100036.22
2023-05-25T17:03:35.696Z,100035.84
2023-05-25T17:06:03.097Z,100033.94
2023-05-25T17:08:30.612Z,100031.25
2023-05-25T17:10:59.159Z,100033.03
2023-05-25T17:13:26.391Z,100029.53
2023-05-25T17:15:53.627Z,100026.13
2023-05-25T17:18:21.865Z,100032.19
2023-05-25T17:20:49.136Z,100025.38
2023-05-25T17:23:16.928Z,100041.19
2023-05-25T17:25:45.074Z,100031.78
2023-05-25T17:28:12.532Z,100033.09
2023-05-25T17:30:39.826Z,100033.25
2023-05-25T17:33:07.429Z,100043.53
2023-05-25T17:35:34.739Z,100044.16
2023-05-25T17:38:02.086Z,100040.25
2023-05-25T17:40:29.695Z,100041.81
2023-05-25T17:42:57.097Z,100037.28
2023-05-25T17:45:24.460Z,100032.94
2023-05-25T17:47:52.086Z,100025.84
2023-05-25T17:50:19.374Z,100029.84
2023-05-25T17:52:46.805Z,100032.22
2023-05-25T17:55:14.523Z,100040.06
2023-05-25T17:57:41.761Z,100037.25
2023-05-25T18:00:09.205Z,100036.38
2023-05-25T18:02:39.984Z,100039.63
2023-05-25T18:05:07.961Z,100034.50
2023-05-25T18:07:35.568Z,100041.59
2023-05-25T18:10:02.820Z,100042.72
2023-05-25T18:12:30.375Z,100040.06
2023-05-25T18:14:57.603Z,100033.37
2023-05-25T18:17:24.845Z,100028.88
2023-05-25T18:19:52.564Z,100042.97
2023-05-25T18:22:19.888Z,100039.69
2023-05-25T18:24:47.321Z,100053.31
2023-05-25T18:27:14.934Z,100050.94
2023-05-25T18:29:42.303Z,100051.94
2023-05-25T18:32:09.579Z,100057.94
2023-05-25T18:34:37.182Z,100057.66
2023-05-25T18:37:04.500Z,100064.53
2023-05-25T18:39:31.825Z,100067.75
2023-05-25T18:41:59.365Z,100062.19
2023-05-25T18:44:27.821Z,100069.00
2023-05-25T18:46:56.719Z,100068.16
2023-05-25T18:49:24.649Z,100075.88
2023-05-25T18:51:51.952Z,100079.41
2023-05-25T18:54:19.147Z,100085.41
2023-05-25T18:56:46.772Z,100077.41
2023-05-25T18:59:14.285Z,100088.37
2023-05-25T19:01:41.578Z,100092.22
2023-05-25T19:04:09.276Z,100101.59
2023-05-25T19:06:37.888Z,100102.41
2023-05-25T19:09:05.121Z,100111.22
2023-05-25T19:11:32.783Z,100107.38
2023-05-25T19:14:00.158Z,100112.75
2023-05-25T19:16:27.483Z,100113.41
2023-05-25T19:18:55.122Z,100107.56
2023-05-25T19:21:23.102Z,100105.69
2023-05-25T19:23:50.376Z,100104.91
2023-05-25T19:26:17.965Z,100108.03
2023-05-25T19:28:45.170Z,100108.81
2023-05-25T19:31:12.542Z,100119.63
2023-05-25T19:33:40.224Z,100115.25
2023-05-25T19:36:07.640Z,100115.81
2023-05-25T19:38:41.199Z,100106.56
2023-05-25T19:41:09.596Z,100117.03
2023-05-25T19:43:37.443Z,100108.16
2023-05-25T19:46:04.798Z,100116.81
2023-05-25T19:48:32.327Z,100123.81
2023-05-25T19:51:01.052Z,100118.31
2023-05-25T19:53:28.981Z,100115.37
2023-05-25T19:55:56.527Z,100121.69
2023-05-25T19:58:23.773Z,100127.81
2023-05-25T20:00:52.139Z,100118.09
2023-05-25T20:03:21.045Z,100121.53
2023-05-25T20:05:48.425Z,100124.28
2023-05-25T20:08:15.713Z,100128.69
2023-05-25T20:10:44.995Z,100132.91
2023-05-25T20:14:02.686Z,100123.06
2023-05-25T20:16:30.676Z,100131.84
2023-05-25T20:18:58.027Z,100123.22
2023-05-25T20:21:25.857Z,100132.63
2023-05-25T20:23:53.572Z,100129.16
2023-05-25T20:26:20.875Z,100125.72
2023-05-25T20:28:48.142Z,100115.13
2023-05-25T20:31:15.830Z,100130.94
2023-05-25T20:33:43.320Z,100130.97
2023-05-25T20:36:10.680Z,100133.81
2023-05-25T20:38:38.183Z,100126.44
2023-05-25T20:41:05.634Z,100125.63
2023-05-25T20:43:33.304Z,100135.63
2023-05-25T20:46:01.088Z,100129.19
2023-05-25T20:48:28.395Z,100118.59
2023-05-25T20:50:55.650Z,100126.59
2023-05-25T20:53:23.118Z,100126.75
2023-05-25T20:55:51.413Z,100124.28
2023-05-25T20:58:18.614Z,100123.31
2023-05-25T21:00:49.815Z,100124.03
2023-05-25T21:03:17.217Z,100127.66
2023-05-25T21:05:45.335Z,100127.81
2023-05-25T21:08:13.119Z,100133.00
2023-05-25T21:10:40.646Z,100129.47
2023-05-25T21:13:09.381Z,100126.81
2023-05-25T21:15:36.895Z,100130.81
2023-05-25T21:18:05.571Z,100132.19
2023-05-25T21:20:33.188Z,100125.41
2023-05-25T21:23:02.474Z,100134.03
2023-05-25T21:25:29.971Z,100138.66
2023-05-25T21:27:57.450Z,100135.87
2023-05-25T21:30:25.449Z,100135.75
2023-05-25T21:32:52.739Z,100134.03
2023-05-25T21:35:19.956Z,100135.94
2023-05-25T21:37:47.463Z,100129.22
2023-05-25T21:40:14.697Z,100135.63
2023-05-25T21:42:41.845Z,100140.75
2023-05-25T21:45:09.515Z,100142.97
2023-05-25T21:47:36.683Z,100156.09
2023-05-25T21:50:03.991Z,100152.22
2023-05-25T21:52:31.428Z,100147.12
2023-05-25T21:54:58.632Z,100149.63
2023-05-25T21:57:26.056Z,100153.50
2023-05-25T21:59:53.686Z,100142.37
2023-05-25T22:02:21.172Z,100151.69
2023-05-25T22:04:48.849Z,100144.84
2023-05-25T22:07:16.418Z,100148.13
2023-05-25T22:09:43.848Z,100151.09
2023-05-25T22:12:12.237Z,100160.31
2023-05-25T22:14:39.438Z,100153.50
2023-05-25T22:17:07.166Z,100149.84
2023-05-25T22:19:34.964Z,100150.66
2023-05-25T22:22:02.136Z,100148.94
2023-05-25T22:24:29.352Z,100150.62
2023-05-25T22:26:57.038Z,100150.72
2023-05-25T22:29:24.270Z,100155.06
2023-05-25T22:31:51.739Z,100153.19
2023-05-25T22:34:19.465Z,100147.06
2023-05-25T22:36:46.704Z,100152.16
2023-05-25T22:39:13.887Z,100144.22
2023-05-25T22:41:41.378Z,100141.78
2023-05-25T22:44:08.553Z,100147.94
2023-05-25T22:46:35.904Z,100151.44
2023-05-25T22:49:03.431Z,100147.09
2023-05-25T22:51:30.700Z,100141.78
2023-05-25T22:53:57.833Z,100147.03
2023-05-25T22:56:27.324Z,100147.03
2023-05-25T22:58:54.565Z,100148.56
2023-05-25T23:01:21.854Z,100152.91
2023-05-25T23:03:49.520Z,100144.53
2023-05-25T23:06:16.834Z,100143.84
2023-05-25T23:08:45.079Z,100141.38
2023-05-25T23:11:12.542Z,100130.38
2023-05-25T23:13:41.508Z,100129.59
2023-05-25T23:16:09.238Z,100134.91
2023-05-25T23:18:36.711Z,100135.75
2023-05-25T23:21:03.988Z,100133.09
2023-05-25T23:23:31.224Z,100131.31
2023-05-25T23:25:58.738Z,100132.22
2023-05-25T23:28:26.106Z,100126.91
2023-05-25T23:30:53.335Z,100127.69
2023-05-25T23:33:20.850Z,100140.12
2023-05-25T23:35:48.044Z,100132.72
2023-05-25T23:38:15.645Z,100132.88
2023-05-25T23:40:43.156Z,100130.66
2023-05-25T23:43:10.682Z,100133.69
2023-05-25T23:45:37.919Z,100137.25
2023-05-25T23:48:05.786Z,100127.56
2023-05-25T23:50:33.035Z,100139.34
2023-05-25T23:53:00.402Z,100140.06
2023-05-25T23:55:28.091Z,100137.97
2023-05-25T23:57:55.338Z,100131.44
